Time;durP1;ratioP1;P1;durP2;ratioP2;P2;SDS_P1;SDS_P2;PMS_P1;PMS_P2;Temp;Humidity;BMP_temperature;BMP_pressure;BME280_temperature;BME280_humidity;BME280_pressure;Samples;Min_cycle;Max_cycle;Signal;HPM_P1;HPM_P2
2020/12/10 00:00:12;;;;;;;111.25;52.92;;;0.20;99.90;;;;;;2122332;27;20050;-75
2020/12/10 00:01:12;;;;;;;95.05;48.15;;;0.20;99.90;;;;;;2122074;27;20023;-78
2020/12/10 00:02:14;;;;;;;77.05;42.22;;;0.20;99.90;;;;;;2122079;27;20023;-75
2020/12/10 00:03:14;;;;;;;76.72;42.17;;;0.30;99.90;;;;;;2121873;27;20476;-77
2020/12/10 00:04:15;;;;;;;74.78;43.67;;;0.20;99.90;;;;;;2113043;28;20031;-75
2020/12/10 00:05:16;;;;;;;74.82;44.30;;;0.20;99.90;;;;;;2113141;27;20072;-75
2020/12/10 00:06:20;;;;;;;79.05;44.65;;;0.20;99.90;;;;;;2113322;28;20446;-78
2020/12/10 00:07:22;;;;;;;74.68;41.20;;;0.20;99.90;;;;;;2113341;27;20058;-75
2020/12/10 00:08:22;;;;;;;75.25;42.20;;;0.20;99.90;;;;;;2122134;27;20072;-77
2020/12/10 00:09:23;;;;;;;77.00;40.50;;;0.20;99.90;;;;;;2122021;27;20101;-76
2020/12/10 00:10:24;;;;;;;75.53;43.75;;;0.30;99.90;;;;;;2122537;27;20316;-78
2020/12/10 00:11:25;;;;;;;74.18;41.15;;;0.30;99.90;;;;;;2121518;27;20150;-78
2020/12/10 00:12:25;;;;;;;69.40;41.58;;;0.30;99.90;;;;;;2122409;27;20188;-78
2020/12/10 00:13:26;;;;;;;69.10;41.28;;;0.30;99.90;;;;;;2112873;28;20042;-78
2020/12/10 00:14:27;;;;;;;71.75;41.67;;;0.30;99.90;;;;;;2104637;28;20016;-75
2020/12/10 00:15:27;;;;;;;69.75;40.95;;;0.30;99.90;;;;;;2112891;27;20019;-74
2020/12/10 00:16:28;;;;;;;67.55;39.97;;;0.30;99.90;;;;;;2122404;27;20031;-77
2020/12/10 00:17:29;;;;;;;65.65;39.97;;;0.30;99.90;;;;;;2122025;27;20176;-75
2020/12/10 00:18:30;;;;;;;71.68;40.58;;;0.30;99.90;;;;;;2122204;27;20026;-75
2020/12/10 00:19:30;;;;;;;66.47;38.63;;;0.30;99.90;;;;;;2113153;28;20051;-75
2020/12/10 00:20:31;;;;;;;69.13;41.00;;;0.30;99.90;;;;;;2112855;28;20024;-78
2020/12/10 00:21:32;;;;;;;70.93;40.30;;;0.30;99.90;;;;;;2121735;27;20474;-77
2020/12/10 00:22:34;;;;;;;60.33;37.67;;;0.30;99.90;;;;;;2122329;27;20023;-76
2020/12/10 00:23:35;;;;;;;66.10;39.78;;;0.40;99.90;;;;;;2122037;27;20020;-78
2020/12/10 00:24:35;;;;;;;62.15;39.17;;;0.40;99.90;;;;;;2121897;27;20024;-76
2020/12/10 00:25:36;;;;;;;66.82;40.58;;;0.40;99.90;;;;;;2122015;27;20114;-75
2020/12/10 00:26:36;;;;;;;64.43;40.63;;;0.40;99.90;;;;;;2122457;27;20022;-77
2020/12/10 00:27:37;;;;;;;63.47;37.75;;;0.40;99.90;;;;;;2121848;27;20510;-76
2020/12/10 00:28:38;;;;;;;62.10;38.42;;;0.40;99.90;;;;;;2121991;27;20465;-77
2020/12/10 00:29:39;;;;;;;62.67;37.55;;;0.40;99.90;;;;;;2122112;27;20081;-76
2020/12/10 00:30:39;;;;;;;61.92;37.80;;;0.40;99.90;;;;;;2112578;28;20056;-76
2020/12/10 00:31:40;;;;;;;64.00;37.20;;;0.50;99.90;;;;;;2112650;28;20437;-78
2020/12/10 00:32:40;;;;;;;59.45;37.10;;;0.50;99.90;;;;;;2122612;27;20553;-78
2020/12/10 00:33:41;;;;;;;57.67;36.22;;;0.50;99.90;;;;;;2121957;27;20034;-79
2020/12/10 00:34:43;;;;;;;56.22;34.47;;;0.50;99.90;;;;;;2122168;27;20019;-76
2020/12/10 00:35:44;;;;;;;53.85;34.60;;;0.50;99.90;;;;;;2112876;28;20051;-78
2020/12/10 00:36:45;;;;;;;61.53;37.95;;;0.50;99.90;;;;;;2104511;28;20075;-78
2020/12/10 00:37:45;;;;;;;59.88;36.42;;;0.50;99.90;;;;;;2112851;28;20020;-79
2020/12/10 00:38:46;;;;;;;59.35;37.78;;;0.50;99.90;;;;;;2122123;27;20440;-78
2020/12/10 00:39:46;;;;;;;57.58;35.15;;;0.50;99.90;;;;;;2122088;27;20042;-76
2020/12/10 00:40:47;;;;;;;57.80;37.35;;;0.50;99.90;;;;;;2121944;27;20387;-79
2020/12/10 00:41:53;;;;;;;57.42;37.05;;;0.50;99.90;;;;;;2121566;27;20023;-81
2020/12/10 00:42:53;;;;;;;59.58;37.03;;;0.60;99.90;;;;;;2122249;27;20409;-77
2020/12/10 00:43:54;;;;;;;59.03;38.10;;;0.50;99.90;;;;;;2121923;27;20027;-77
2020/12/10 00:44:54;;;;;;;57.90;36.40;;;0.50;99.90;;;;;;2122087;27;20027;-76
2020/12/10 00:45:55;;;;;;;54.67;36.10;;;0.50;99.90;;;;;;2112832;28;20028;-75
2020/12/10 00:46:55;;;;;;;59.63;37.85;;;0.60;99.90;;;;;;2104505;28;20036;-77
2020/12/10 00:47:56;;;;;;;59.00;37.05;;;0.60;99.90;;;;;;2104534;28;20031;-75
2020/12/10 00:48:57;;;;;;;55.97;34.35;;;0.60;99.90;;;;;;2112906;28;20487;-76
2020/12/10 00:49:57;;;;;;;52.13;34.13;;;0.60;99.90;;;;;;2121635;27;20054;-75
2020/12/10 00:50:59;;;;;;;53.70;34.22;;;0.60;99.90;;;;;;2112464;28;20020;-76
2020/12/10 00:51:59;;;;;;;60.05;37.58;;;0.60;99.90;;;;;;2103877;28;20048;-78
2020/12/10 00:53:00;;;;;;;60.40;37.15;;;0.60;99.90;;;;;;2112986;28;20027;-79
2020/12/10 00:54:00;;;;;;;54.42;36.20;;;0.60;99.90;;;;;;2121865;27;20440;-76
2020/12/10 00:55:01;;;;;;;53.58;34.58;;;0.60;99.90;;;;;;2112861;28;20023;-75
2020/12/10 00:56:02;;;;;;;58.95;37.30;;;0.60;99.90;;;;;;2104240;28;20028;-74
2020/12/10 00:57:02;;;;;;;53.28;35.47;;;0.60;99.90;;;;;;2112620;28;20031;-77
2020/12/10 00:58:03;;;;;;;58.10;35.40;;;0.60;99.90;;;;;;2121643;27;20019;-77
2020/12/10 00:59:03;;;;;;;52.88;34.72;;;0.60;99.90;;;;;;2122084;27;20038;-79
2020/12/10 01:00:09;;;;;;;55.08;35.78;;;0.60;99.90;;;;;;2121575;27;20511;-76
2020/12/10 01:01:09;;;;;;;53.33;35.17;;;0.60;99.90;;;;;;2112614;28;20084;-76
2020/12/10 01:02:10;;;;;;;54.85;35.92;;;0.60;99.90;;;;;;2112323;28;20028;-76
2020/12/10 01:03:10;;;;;;;57.45;35.53;;;0.60;99.90;;;;;;2122014;27;20023;-77
2020/12/10 01:04:12;;;;;;;52.85;33.90;;;0.60;99.90;;;;;;2112323;28;20051;-78
2020/12/10 01:05:12;;;;;;;53.90;34.85;;;0.60;99.90;;;;;;2112770;28;20047;-79
2020/12/10 01:06:13;;;;;;;50.47;32.75;;;0.60;99.90;;;;;;2121963;27;20245;-78
2020/12/10 01:07:14;;;;;;;55.35;36.17;;;0.70;99.90;;;;;;2122013;27;20478;-75
2020/12/10 01:08:15;;;;;;;52.78;34.22;;;0.70;99.90;;;;;;2121820;27;20015;-79
2020/12/10 01:09:15;;;;;;;54.50;34.10;;;0.70;99.90;;;;;;2121917;27;20062;-79
2020/12/10 01:10:16;;;;;;;52.88;34.78;;;0.70;99.90;;;;;;2121545;27;20027;-78
2020/12/10 01:11:17;;;;;;;49.55;31.85;;;0.70;99.90;;;;;;2120773;27;20058;-76
2020/12/10 01:12:17;;;;;;;55.80;34.90;;;0.70;99.90;;;;;;2111694;28;20028;-74
2020/12/10 01:13:18;;;;;;;52.53;33.17;;;0.70;99.90;;;;;;2112853;28;20027;-77
2020/12/10 01:14:19;;;;;;;50.83;32.88;;;0.70;99.90;;;;;;2121750;27;20027;-75
2020/12/10 01:15:19;;;;;;;55.95;35.17;;;0.80;99.90;;;;;;2121919;27;20011;-77
2020/12/10 01:16:21;;;;;;;51.40;34.78;;;0.70;99.90;;;;;;2121325;27;20271;-74
2020/12/10 01:17:21;;;;;;;52.40;33.33;;;0.70;99.90;;;;;;2121869;27;20103;-76
2020/12/10 01:18:22;;;;;;;52.42;35.55;;;0.70;99.90;;;;;;2121881;27;20023;-78
2020/12/10 01:19:22;;;;;;;55.88;35.08;;;0.70;99.90;;;;;;2121689;27;20072;-80
2020/12/10 01:20:24;;;;;;;50.90;34.63;;;0.70;99.90;;;;;;2121935;27;20282;-78
2020/12/10 01:21:33;;;;;;;52.67;34.40;;;0.80;99.90;;;;;;2121650;27;20258;-75
2020/12/10 01:22:33;;;;;;;48.47;32.45;;;0.80;99.90;;;;;;2121240;27;20037;-76
2020/12/10 01:23:34;;;;;;;51.45;34.15;;;0.80;99.90;;;;;;2112741;28;20072;-75
2020/12/10 01:24:34;;;;;;;51.10;33.83;;;0.80;99.90;;;;;;2112426;28;20028;-80
2020/12/10 01:25:35;;;;;;;55.00;33.55;;;0.80;99.90;;;;;;2121737;27;20038;-77
2020/12/10 01:26:36;;;;;;;48.70;33.47;;;0.80;99.90;;;;;;2112539;28;20031;-76
2020/12/10 01:27:36;;;;;;;52.60;35.92;;;0.80;99.90;;;;;;2112483;28;20047;-78
2020/12/10 01:28:37;;;;;;;52.83;34.78;;;0.80;99.90;;;;;;2121723;27;20023;-76
2020/12/10 01:29:37;;;;;;;53.58;35.17;;;0.80;99.90;;;;;;2121603;27;20065;-75
2020/12/10 01:30:38;;;;;;;50.47;34.63;;;0.80;99.90;;;;;;2121584;27;20459;-75
2020/12/10 01:31:39;;;;;;;51.13;33.92;;;0.80;99.90;;;;;;2112383;28;20106;-75
2020/12/10 01:32:39;;;;;;;49.33;33.47;;;0.90;99.90;;;;;;2103755;28;20103;-79
2020/12/10 01:33:40;;;;;;;55.38;35.28;;;0.90;99.90;;;;;;2112649;28;20020;-78
2020/12/10 01:34:40;;;;;;;52.97;34.85;;;0.90;99.90;;;;;;2121200;27;20095;-76
2020/12/10 01:35:41;;;;;;;51.92;33.42;;;0.90;99.90;;;;;;2121738;27;20023;-79
2020/12/10 01:36:41;;;;;;;56.63;34.58;;;0.90;99.90;;;;;;2121678;27;20031;-78
2020/12/10 01:37:42;;;;;;;51.78;33.92;;;0.90;99.90;;;;;;2121614;28;20019;-77
2020/12/10 01:38:42;;;;;;;51.67;34.70;;;0.90;99.90;;;;;;2112805;28;20361;-77
2020/12/10 01:39:43;;;;;;;48.75;32.30;;;0.90;99.90;;;;;;2112216;28;20498;-79
2020/12/10 01:40:52;;;;;;;49.88;33.40;;;0.90;99.90;;;;;;2121755;28;20090;-76
2020/12/10 01:41:53;;;;;;;51.15;35.75;;;0.90;99.90;;;;;;2121330;27;20409;-78
2020/12/10 01:42:53;;;;;;;51.08;33.75;;;0.90;99.90;;;;;;2121841;27;20027;-75
2020/12/10 01:44:06;;;;;;;49.80;32.08;;;0.90;99.90;;;;;;2112435;28;20038;-80
2020/12/10 01:45:07;;;;;;;50.67;33.88;;;1.00;99.90;;;;;;2114199;28;20061;-77
2020/12/10 01:46:08;;;;;;;46.40;31.73;;;0.90;99.90;;;;;;2121913;28;20178;-77
2020/12/10 01:47:09;;;;;;;46.10;32.30;;;1.00;99.90;;;;;;2121431;28;20019;-77
2020/12/10 01:48:09;;;;;;;46.75;31.95;;;1.00;99.90;;;;;;2121557;28;20019;-77
2020/12/10 01:49:10;;;;;;;50.50;33.95;;;1.00;99.90;;;;;;2121724;28;20064;-76
2020/12/10 01:50:11;;;;;;;50.83;34.00;;;1.00;99.90;;;;;;2121693;28;20093;-77
2020/12/10 01:51:12;;;;;;;47.40;33.35;;;1.00;99.90;;;;;;2121386;28;20023;-76
2020/12/10 01:52:12;;;;;;;47.78;31.88;;;1.00;99.90;;;;;;2121229;28;20016;-76
2020/12/10 01:53:13;;;;;;;47.92;32.75;;;1.00;99.90;;;;;;2121404;28;20027;-76
2020/12/10 01:54:13;;;;;;;50.25;33.10;;;1.00;99.90;;;;;;2121363;28;20027;-79
2020/12/10 01:55:14;;;;;;;50.65;33.67;;;1.00;99.90;;;;;;2121765;28;20050;-78
2020/12/10 01:56:16;;;;;;;47.60;33.15;;;1.10;99.90;;;;;;2121336;28;20102;-79
2020/12/10 01:57:16;;;;;;;51.47;33.33;;;1.10;99.90;;;;;;2121545;28;20471;-78
2020/12/10 01:58:17;;;;;;;49.42;34.28;;;1.10;99.90;;;;;;2121235;28;20019;-78
2020/12/10 01:59:18;;;;;;;50.10;34.10;;;1.10;99.90;;;;;;2121500;28;20020;-78
2020/12/10 02:00:19;;;;;;;49.70;33.90;;;1.10;99.90;;;;;;2121339;28;20437;-77
2020/12/10 02:01:20;;;;;;;52.55;34.30;;;1.10;99.90;;;;;;2121638;28;20250;-77
2020/12/10 02:02:20;;;;;;;54.83;34.85;;;1.10;99.90;;;;;;2112202;28;20027;-75
2020/12/10 02:03:21;;;;;;;45.28;32.38;;;1.10;99.90;;;;;;2112377;28;20027;-79
2020/12/10 02:04:27;;;;;;;50.58;33.50;;;1.10;99.90;;;;;;2121118;28;20023;-75
2020/12/10 02:05:28;;;;;;;50.15;34.38;;;1.10;99.90;;;;;;2121519;28;20475;-79
2020/12/10 02:06:28;;;;;;;52.42;33.92;;;1.10;99.90;;;;;;2121304;28;20027;-77
2020/12/10 02:07:29;;;;;;;47.85;32.15;;;1.10;99.90;;;;;;2121607;28;20055;-77
2020/12/10 02:08:29;;;;;;;47.08;32.85;;;1.10;99.90;;;;;;2121539;28;20031;-76
2020/12/10 02:09:31;;;;;;;49.45;33.47;;;1.10;99.90;;;;;;2121391;28;20079;-75
2020/12/10 02:10:31;;;;;;;50.60;33.67;;;1.20;99.90;;;;;;2121304;28;20019;-79
2020/12/10 02:11:32;;;;;;;48.63;33.53;;;1.20;99.90;;;;;;2112126;28;20442;-78
2020/12/10 02:12:32;;;;;;;49.35;32.17;;;1.20;99.90;;;;;;2103972;28;20061;-77
2020/12/10 02:13:33;;;;;;;51.58;31.58;;;1.20;99.90;;;;;;2104005;28;20062;-78
2020/12/10 02:14:35;;;;;;;45.88;31.73;;;1.20;99.90;;;;;;2112145;28;20430;-77
2020/12/10 02:15:36;;;;;;;45.05;31.40;;;1.20;99.90;;;;;;2121773;28;20043;-78
2020/12/10 02:16:36;;;;;;;46.83;32.05;;;1.20;99.90;;;;;;2112233;28;20375;-76
2020/12/10 02:17:37;;;;;;;45.13;30.33;;;1.20;99.90;;;;;;2113620;28;20024;-79
2020/12/10 02:18:38;;;;;;;46.45;30.50;;;1.20;99.90;;;;;;2123219;27;20110;-77
2020/12/10 02:19:38;;;;;;;45.90;32.03;;;1.20;99.90;;;;;;2123174;27;20469;-76
2020/12/10 02:20:39;;;;;;;46.58;31.08;;;1.20;99.90;;;;;;2123189;27;20056;-77
2020/12/10 02:21:39;;;;;;;47.25;31.15;;;1.20;99.90;;;;;;2113928;28;20452;-76
2020/12/10 02:22:40;;;;;;;47.15;31.00;;;1.20;99.90;;;;;;2113717;28;20078;-75
2020/12/10 02:23:40;;;;;;;41.60;28.88;;;1.20;99.90;;;;;;2122877;27;20023;-74
2020/12/10 02:24:41;;;;;;;46.95;30.38;;;1.30;99.90;;;;;;2122981;27;20054;-76
2020/12/10 02:25:41;;;;;;;45.08;30.73;;;1.30;99.90;;;;;;2123220;27;20051;-78
2020/12/10 02:26:42;;;;;;;45.40;29.20;;;1.30;99.90;;;;;;2123011;27;20019;-76
2020/12/10 02:27:43;;;;;;;43.97;29.50;;;1.30;99.90;;;;;;2123089;27;20030;-77
2020/12/10 02:28:44;;;;;;;41.53;27.90;;;1.30;99.90;;;;;;2123160;27;20026;-77
2020/12/10 02:29:44;;;;;;;44.50;29.77;;;1.30;99.90;;;;;;2113440;28;20628;-75
2020/12/10 02:30:47;;;;;;;40.28;28.45;;;1.30;99.90;;;;;;2113942;28;20028;-75
2020/12/10 02:31:47;;;;;;;43.60;28.25;;;1.30;99.90;;;;;;2122460;27;20026;-77
2020/12/10 02:32:54;;;;;;;44.65;29.83;;;1.30;99.90;;;;;;2123179;27;20016;-79
2020/12/10 02:34:01;;;;;;;45.97;29.67;;;1.30;99.90;;;;;;2122939;27;20102;-78
2020/12/10 02:35:02;;;;;;;43.05;27.98;;;1.30;99.90;;;;;;2123193;27;20026;-80
2020/12/10 02:36:02;;;;;;;45.10;27.65;;;1.30;99.90;;;;;;2122960;27;20007;-77
2020/12/10 02:37:03;;;;;;;40.65;27.60;;;1.30;99.90;;;;;;2123159;27;20080;-78
2020/12/10 02:38:06;;;;;;;46.42;29.35;;;1.40;99.90;;;;;;2123097;27;20027;-77
2020/12/10 02:39:08;;;;;;;43.25;28.55;;;1.40;99.90;;;;;;2122834;27;20019;-77
2020/12/10 02:40:09;;;;;;;42.47;28.13;;;1.40;99.90;;;;;;2122568;27;20050;-78
2020/12/10 02:41:14;;;;;;;45.70;29.52;;;1.40;99.90;;;;;;2113889;28;20023;-76
2020/12/10 02:42:14;;;;;;;45.58;29.77;;;1.40;99.90;;;;;;2114136;27;20019;-76
2020/12/10 02:43:15;;;;;;;43.15;28.33;;;1.40;99.90;;;;;;2113737;28;20114;-78
2020/12/10 02:44:16;;;;;;;42.88;27.40;;;1.40;99.90;;;;;;2114019;28;20506;-76
2020/12/10 02:45:18;;;;;;;41.53;28.60;;;1.50;99.90;;;;;;2114005;28;20147;-78
2020/12/10 02:46:19;;;;;;;38.05;26.73;;;1.50;99.90;;;;;;2113909;27;20396;-77
2020/12/10 02:47:19;;;;;;;42.25;28.33;;;1.50;99.90;;;;;;2122702;27;20027;-75
2020/12/10 02:48:20;;;;;;;42.75;28.20;;;1.50;99.90;;;;;;2113616;28;20030;-76
2020/12/10 02:49:20;;;;;;;39.78;27.42;;;1.50;99.90;;;;;;2105485;28;20217;-76
2020/12/10 02:50:21;;;;;;;40.80;27.75;;;1.50;99.90;;;;;;2113519;28;20494;-78
2020/12/10 02:51:22;;;;;;;44.50;28.95;;;1.50;99.90;;;;;;2122622;27;20100;-77
2020/12/10 02:52:23;;;;;;;43.83;28.83;;;1.50;99.90;;;;;;2122851;27;20028;-77
2020/12/10 02:53:23;;;;;;;43.10;28.55;;;1.50;99.90;;;;;;2122758;27;20015;-77
2020/12/10 02:54:24;;;;;;;42.90;28.20;;;1.50;99.90;;;;;;2122749;27;20475;-78
2020/12/10 02:55:25;;;;;;;44.85;28.55;;;1.50;99.90;;;;;;2109826;28;20371;-76
2020/12/10 02:56:25;;;;;;;46.63;28.80;;;1.50;99.90;;;;;;2113810;28;20237;-77
2020/12/10 02:57:26;;;;;;;42.60;28.58;;;1.60;99.90;;;;;;2122652;27;20110;-78
2020/12/10 02:58:26;;;;;;;47.15;30.10;;;1.60;99.90;;;;;;2122895;27;20015;-76
2020/12/10 02:59:27;;;;;;;42.13;28.80;;;1.60;99.90;;;;;;2122309;27;20034;-80
2020/12/10 03:00:28;;;;;;;46.20;29.55;;;1.60;99.90;;;;;;2122904;27;20027;-80
2020/12/10 03:01:28;;;;;;;49.63;31.50;;;1.60;99.90;;;;;;2123416;27;20031;-78
2020/12/10 03:02:29;;;;;;;46.60;30.67;;;1.60;99.90;;;;;;2123833;27;20027;-76
2020/12/10 03:03:30;;;;;;;45.28;29.55;;;1.60;99.90;;;;;;2123669;27;20107;-78
2020/12/10 03:04:30;;;;;;;44.47;27.58;;;1.60;99.90;;;;;;2114686;28;20042;-76
2020/12/10 03:05:31;;;;;;;43.42;29.35;;;1.60;99.90;;;;;;2114346;28;20032;-77
2020/12/10 03:06:31;;;;;;;43.92;30.02;;;1.60;99.90;;;;;;2114029;28;20016;-75
2020/12/10 03:07:33;;;;;;;44.17;30.13;;;1.60;99.90;;;;;;2114163;28;20024;-79
2020/12/10 03:08:38;;;;;;;42.88;28.23;;;1.60;99.90;;;;;;2114588;28;20357;-79
2020/12/10 03:09:38;;;;;;;43.55;28.95;;;1.60;99.90;;;;;;2123465;27;20027;-76
2020/12/10 03:10:39;;;;;;;42.28;28.70;;;1.70;99.90;;;;;;2123745;27;20038;-77
2020/12/10 03:11:39;;;;;;;42.38;27.58;;;1.70;99.90;;;;;;2122607;27;20043;-81
2020/12/10 03:12:40;;;;;;;44.63;29.42;;;1.70;99.90;;;;;;2124299;27;20038;-77
2020/12/10 03:13:40;;;;;;;41.67;28.20;;;1.70;99.90;;;;;;2124119;27;20562;-81
2020/12/10 03:14:41;;;;;;;41.50;28.30;;;1.70;99.90;;;;;;2123583;27;20024;-77
2020/12/10 03:15:42;;;;;;;43.10;28.70;;;1.70;99.90;;;;;;2123554;27;20027;-77
2020/12/10 03:16:43;;;;;;;44.72;28.38;;;1.70;99.90;;;;;;2123828;27;20019;-77
2020/12/10 03:17:43;;;;;;;42.53;27.90;;;1.70;99.90;;;;;;2123253;27;20023;-79
2020/12/10 03:18:44;;;;;;;44.15;27.20;;;1.80;99.90;;;;;;2123503;27;20015;-77
2020/12/10 03:19:44;;;;;;;42.20;28.20;;;1.70;99.90;;;;;;2123712;27;20027;-80
2020/12/10 03:20:45;;;;;;;41.88;27.40;;;1.80;99.90;;;;;;2114416;28;20028;-77
2020/12/10 03:21:46;;;;;;;41.88;28.48;;;1.80;99.90;;;;;;2114361;28;20027;-79
2020/12/10 03:22:46;;;;;;;41.03;28.27;;;1.80;99.90;;;;;;2114267;28;20442;-80
2020/12/10 03:23:47;;;;;;;44.50;30.10;;;1.80;99.90;;;;;;2097349;28;20048;-80
2020/12/10 03:24:48;;;;;;;45.30;29.55;;;1.80;99.90;;;;;;2097601;28;20560;-76
2020/12/10 03:25:49;;;;;;;44.03;29.35;;;1.80;99.90;;;;;;2114488;28;20074;-77
2020/12/10 03:26:49;;;;;;;43.65;28.00;;;1.80;99.90;;;;;;2123541;27;20034;-78
2020/12/10 03:27:50;;;;;;;48.40;29.25;;;1.80;99.90;;;;;;2123435;27;20065;-78
2020/12/10 03:28:50;;;;;;;45.10;29.50;;;1.80;99.90;;;;;;2123314;27;20019;-78
2020/12/10 03:29:51;;;;;;;44.03;29.20;;;1.80;99.90;;;;;;2123317;27;20023;-80
2020/12/10 03:30:51;;;;;;;46.63;30.25;;;1.80;99.90;;;;;;2123349;27;20051;-78
2020/12/10 03:31:52;;;;;;;47.33;29.45;;;1.80;99.90;;;;;;2123360;27;20030;-78
2020/12/10 03:32:52;;;;;;;40.33;27.30;;;1.80;99.90;;;;;;2114320;28;20115;-79
2020/12/10 03:33:53;;;;;;;44.70;28.42;;;1.80;99.90;;;;;;2114446;28;20019;-78
2020/12/10 03:34:53;;;;;;;38.28;26.15;;;1.80;99.90;;;;;;2123438;27;20080;-81
2020/12/10 03:35:54;;;;;;;34.22;23.33;;;1.80;99.90;;;;;;2114314;28;20024;-77
2020/12/10 03:36:56;;;;;;;38.28;26.08;;;1.80;99.90;;;;;;2114469;28;20110;-78
2020/12/10 03:37:59;;;;;;;44.92;29.90;;;1.80;99.90;;;;;;2123320;27;20019;-78
2020/12/10 03:39:00;;;;;;;48.10;29.83;;;1.80;99.90;;;;;;2114293;28;20037;-78
2020/12/10 03:40:02;;;;;;;43.10;28.88;;;1.80;99.90;;;;;;2114056;28;20035;-78
2020/12/10 03:41:05;;;;;;;41.05;27.73;;;1.80;99.90;;;;;;2123100;27;20019;-78
2020/12/10 03:42:06;;;;;;;40.83;27.10;;;1.80;99.90;;;;;;2122777;27;20476;-77
2020/12/10 03:43:07;;;;;;;43.25;28.60;;;1.80;99.90;;;;;;2123189;27;20110;-77
2020/12/10 03:44:07;;;;;;;44.25;29.13;;;1.80;99.90;;;;;;2122767;27;20015;-76
2020/12/10 03:45:08;;;;;;;44.55;29.70;;;1.80;99.90;;;;;;2123336;27;20374;-77
2020/12/10 03:46:08;;;;;;;44.78;29.20;;;1.80;99.90;;;;;;2123195;27;20023;-79
2020/12/10 03:47:09;;;;;;;43.28;27.92;;;1.80;99.90;;;;;;2122708;27;20027;-80
2020/12/10 03:48:09;;;;;;;42.47;28.98;;;1.80;99.90;;;;;;2123201;27;20054;-78
2020/12/10 03:49:11;;;;;;;44.70;29.50;;;1.80;99.90;;;;;;2123290;27;20027;-75
2020/12/10 03:50:12;;;;;;;42.03;28.02;;;1.80;99.90;;;;;;2123481;27;20151;-80
2020/12/10 03:51:12;;;;;;;39.65;27.05;;;1.70;99.90;;;;;;2123339;27;20463;-74
2020/12/10 03:52:13;;;;;;;40.63;27.38;;;1.70;99.90;;;;;;2123121;27;20015;-76
2020/12/10 03:53:14;;;;;;;35.70;25.55;;;1.80;99.90;;;;;;2123120;27;20054;-78
2020/12/10 03:54:14;;;;;;;42.92;27.08;;;1.70;99.90;;;;;;2123032;27;20023;-80
2020/12/10 03:55:15;;;;;;;37.97;27.42;;;1.70;99.90;;;;;;2123494;27;20019;-79
2020/12/10 03:56:15;;;;;;;39.03;26.75;;;1.70;99.90;;;;;;2122940;27;20038;-78
2020/12/10 03:57:16;;;;;;;39.22;26.98;;;1.70;99.90;;;;;;2123298;27;20051;-76
2020/12/10 03:58:17;;;;;;;44.00;28.30;;;1.70;99.90;;;;;;2123034;27;20106;-80
2020/12/10 03:59:17;;;;;;;45.15;30.55;;;1.70;99.90;;;;;;2113823;28;20016;-79
2020/12/10 04:00:20;;;;;;;40.00;27.00;;;1.70;99.90;;;;;;2113757;28;20122;-79
2020/12/10 04:01:21;;;;;;;40.42;27.73;;;1.70;99.90;;;;;;2122963;27;20610;-76
2020/12/10 04:02:21;;;;;;;39.33;28.15;;;1.70;99.90;;;;;;2122171;27;20019;-79
2020/12/10 04:03:22;;;;;;;44.03;29.02;;;1.60;99.90;;;;;;2122646;27;20516;-75
2020/12/10 04:04:22;;;;;;;37.92;26.83;;;1.70;99.90;;;;;;2122501;27;20027;-78
2020/12/10 04:05:23;;;;;;;42.40;28.73;;;1.60;99.90;;;;;;2122753;27;20031;-79
2020/12/10 04:06:24;;;;;;;40.83;29.10;;;1.60;99.90;;;;;;2113224;28;20024;-77
2020/12/10 04:07:25;;;;;;;41.15;28.42;;;1.60;99.90;;;;;;2113427;28;20364;-76
2020/12/10 04:08:25;;;;;;;36.50;25.95;;;1.70;99.90;;;;;;2122667;27;20030;-79
2020/12/10 04:09:26;;;;;;;43.08;29.63;;;1.60;99.90;;;;;;2122642;27;20076;-78
2020/12/10 04:10:26;;;;;;;39.80;27.38;;;1.60;99.90;;;;;;2122414;27;20036;-78
2020/12/10 04:11:27;;;;;;;36.10;25.52;;;1.60;99.90;;;;;;2121526;27;20031;-78
2020/12/10 04:12:28;;;;;;;34.15;23.90;;;1.60;99.90;;;;;;2121895;27;20094;-76
2020/12/10 04:13:28;;;;;;;37.10;25.48;;;1.60;99.90;;;;;;2122446;27;20015;-78
2020/12/10 04:14:29;;;;;;;34.50;24.45;;;1.60;99.90;;;;;;2122365;27;20420;-77
2020/12/10 04:15:29;;;;;;;42.40;28.75;;;1.60;99.90;;;;;;2122708;27;20382;-77
2020/12/10 04:16:30;;;;;;;42.38;28.35;;;1.50;99.90;;;;;;2122144;27;20386;-80
2020/12/10 04:17:30;;;;;;;42.45;29.98;;;1.60;99.90;;;;;;2122108;27;20058;-79
2020/12/10 04:18:32;;;;;;;43.35;30.67;;;1.50;99.90;;;;;;2122247;27;20019;-78
2020/12/10 04:19:32;;;;;;;43.63;29.45;;;1.50;99.90;;;;;;2122321;27;20509;-76
2020/12/10 04:20:33;;;;;;;41.50;28.35;;;1.50;99.90;;;;;;2113313;28;20024;-78
2020/12/10 04:21:33;;;;;;;40.55;29.08;;;1.50;99.90;;;;;;2113004;28;20023;-77
2020/12/10 04:22:34;;;;;;;37.20;26.30;;;1.50;99.90;;;;;;2122167;27;20023;-79
2020/12/10 04:23:35;;;;;;;34.63;25.00;;;1.50;99.90;;;;;;2122370;27;20043;-77
2020/12/10 04:24:36;;;;;;;43.28;28.63;;;1.50;99.90;;;;;;2112795;28;20262;-77
2020/12/10 04:25:36;;;;;;;34.65;25.40;;;1.50;99.90;;;;;;2113092;28;20031;-77
2020/12/10 04:26:37;;;;;;;40.00;27.83;;;1.40;99.90;;;;;;2122135;27;20101;-78
2020/12/10 04:27:37;;;;;;;36.42;25.02;;;1.40;99.90;;;;;;2113124;28;20108;-78
2020/12/10 04:28:38;;;;;;;35.80;25.55;;;1.40;99.90;;;;;;2112898;28;20023;-78
2020/12/10 04:29:38;;;;;;;34.13;25.55;;;1.40;99.90;;;;;;2122031;27;20031;-77
2020/12/10 04:30:39;;;;;;;32.75;24.08;;;1.40;99.90;;;;;;2122371;27;20030;-79
2020/12/10 04:31:41;;;;;;;42.40;27.02;;;1.40;99.90;;;;;;2121646;27;20040;-78
2020/12/10 04:32:42;;;;;;;40.30;27.77;;;1.40;99.90;;;;;;2121992;27;20024;-77
2020/12/10 04:33:43;;;;;;;36.15;26.77;;;1.40;99.90;;;;;;2122243;27;20023;-78
2020/12/10 04:34:43;;;;;;;35.50;24.58;;;1.40;99.90;;;;;;2122272;27;20023;-77
2020/12/10 04:35:44;;;;;;;38.28;26.08;;;1.40;99.90;;;;;;2121709;27;20383;-76
2020/12/10 04:36:47;;;;;;;33.25;23.70;;;1.40;99.90;;;;;;2122208;27;20419;-78
2020/12/10 04:37:48;;;;;;;40.80;26.90;;;1.40;99.90;;;;;;2122172;27;20132;-77
2020/12/10 04:38:48;;;;;;;39.00;27.90;;;1.40;99.90;;;;;;2122036;27;20019;-79
2020/12/10 04:39:49;;;;;;;42.45;29.55;;;1.40;99.90;;;;;;2121694;27;20028;-79
2020/12/10 04:40:50;;;;;;;44.85;30.63;;;1.30;99.90;;;;;;2122053;27;20035;-78
2020/12/10 04:41:51;;;;;;;41.45;29.92;;;1.30;99.90;;;;;;2121386;27;20023;-76
2020/12/10 04:42:53;;;;;;;41.97;27.67;;;1.30;99.90;;;;;;2122166;27;20076;-77
2020/12/10 04:43:54;;;;;;;36.90;26.08;;;1.30;99.90;;;;;;2122319;27;20019;-78
2020/12/10 04:44:54;;;;;;;47.25;31.38;;;1.30;99.90;;;;;;2122106;27;20097;-79
2020/12/10 04:46:04;;;;;;;45.83;30.08;;;1.30;99.90;;;;;;2122049;27;20616;-79
2020/12/10 04:47:09;;;;;;;45.13;30.52;;;1.30;99.90;;;;;;2121903;27;20018;-78
2020/12/10 04:48:09;;;;;;;39.72;27.27;;;1.20;99.90;;;;;;2112552;28;20016;-78
2020/12/10 04:49:11;;;;;;;37.42;25.90;;;1.20;99.90;;;;;;2104732;28;20039;-79
2020/12/10 04:50:19;;;;;;;39.95;27.25;;;1.20;99.90;;;;;;2113098;27;20030;-77
2020/12/10 04:51:22;;;;;;;38.22;26.55;;;1.10;99.90;;;;;;2113008;28;20081;-75
2020/12/10 04:52:23;;;;;;;37.88;26.13;;;1.20;99.90;;;;;;2113142;27;20068;-78
2020/12/10 04:53:26;;;;;;;36.75;25.70;;;1.20;99.90;;;;;;2121846;27;20016;-78
2020/12/10 04:54:26;;;;;;;36.83;25.50;;;1.20;99.90;;;;;;2121983;27;20019;-77
2020/12/10 04:55:27;;;;;;;39.03;27.98;;;1.10;99.90;;;;;;2112567;28;20470;-77
2020/12/10 04:56:28;;;;;;;41.80;27.13;;;1.10;99.90;;;;;;2112701;28;20568;-79
2020/12/10 04:57:31;;;;;;;40.15;25.45;;;1.10;99.90;;;;;;2122151;27;20023;-77
2020/12/10 04:58:32;;;;;;;39.63;27.20;;;1.10;99.90;;;;;;2121769;27;20019;-80
2020/12/10 04:59:32;;;;;;;38.38;26.60;;;1.10;99.90;;;;;;2121808;27;20019;-78
2020/12/10 05:00:33;;;;;;;39.80;26.92;;;1.10;99.90;;;;;;2121711;27;20105;-78
2020/12/10 05:01:34;;;;;;;36.00;25.73;;;1.10;99.90;;;;;;2121648;27;20101;-79
2020/12/10 05:02:35;;;;;;;36.25;25.02;;;1.10;99.90;;;;;;2112796;28;20039;-81
2020/12/10 05:03:35;;;;;;;39.78;27.40;;;1.10;99.90;;;;;;2112888;28;20030;-77
2020/12/10 05:04:36;;;;;;;37.47;27.05;;;1.00;99.90;;;;;;2112251;28;20082;-77
2020/12/10 05:05:36;;;;;;;37.33;25.70;;;1.00;99.90;;;;;;2113099;28;20049;-78
2020/12/10 05:06:49;;;;;;;37.28;26.23;;;1.00;99.90;;;;;;2121661;27;20054;-80
2020/12/10 05:07:50;;;;;;;41.53;27.67;;;1.00;99.90;;;;;;2121990;27;20022;-77
2020/12/10 05:08:50;;;;;;;37.95;24.63;;;1.00;99.90;;;;;;2121824;27;20038;-78
2020/12/10 05:09:57;;;;;;;41.85;29.13;;;0.90;99.90;;;;;;2122346;27;20031;-77
2020/12/10 05:10:59;;;;;;;41.55;28.55;;;1.00;99.90;;;;;;2121677;27;20030;-79
2020/12/10 05:12:00;;;;;;;40.05;27.48;;;1.00;99.90;;;;;;2121677;27;20439;-78
2020/12/10 05:13:06;;;;;;;39.60;25.77;;;0.90;99.90;;;;;;2121905;27;20019;-77